createdAt,value
2023-01-19T07:11:32.998Z,3.32
2023-01-19T07:14:35.938Z,3.32
2023-01-19T07:17:38.282Z,2.79
2023-01-19T07:20:41.002Z,2.81
2023-01-19T07:23:43.497Z,2.81
2023-01-19T07:26:47.539Z,2.81
2023-01-19T07:29:49.926Z,2.88
2023-01-19T07:32:55.090Z,2.90
2023-01-19T07:35:57.496Z,2.93
2023-01-19T07:39:00.266Z,3.03
2023-01-19T07:42:04.464Z,3.09
2023-01-19T07:45:08.430Z,3.08
2023-01-19T07:48:10.830Z,3.06
2023-01-19T07:51:18.743Z,3.14
2023-01-19T07:54:21.298Z,3.14
2023-01-19T07:57:25.354Z,3.12
2023-01-19T08:00:27.697Z,3.13
2023-01-19T08:03:30.386Z,3.18
2023-01-19T08:06:33.688Z,3.22
2023-01-19T08:09:36.342Z,3.24
2023-01-19T08:12:41.122Z,3.28
2023-01-19T08:15:43.820Z,3.28
2023-01-19T08:18:46.228Z,3.33
2023-01-19T08:21:48.898Z,3.37
2023-01-19T08:24:51.825Z,3.50
2023-01-19T08:27:56.573Z,3.41
2023-01-19T08:31:05.328Z,3.56
2023-01-19T08:34:17.313Z,3.50
2023-01-19T08:37:19.643Z,3.63
2023-01-19T08:40:22.348Z,3.57
2023-01-19T08:43:26.133Z,3.57
2023-01-19T08:46:29.147Z,3.67
2023-01-19T08:49:31.525Z,3.49
2023-01-19T08:52:34.226Z,3.57
2023-01-19T08:55:37.099Z,3.46
2023-01-19T08:58:41.277Z,3.44
2023-01-19T09:01:43.507Z,3.42
2023-01-19T09:04:46.304Z,3.43
2023-01-19T09:07:48.696Z,3.45
2023-01-19T09:10:51.490Z,3.49
2023-01-19T09:13:55.549Z,3.47
2023-01-19T09:16:59.197Z,3.52
2023-01-19T09:20:01.729Z,3.49
2023-01-19T09:23:04.698Z,3.55
2023-01-19T09:26:07.226Z,3.53
2023-01-19T09:29:11.322Z,3.58
2023-01-19T09:32:13.717Z,3.73
2023-01-19T09:35:16.583Z,3.72
2023-01-19T09:38:19.762Z,3.67
2023-01-19T09:41:22.547Z,3.64
2023-01-19T09:44:28.642Z,3.66
2023-01-19T09:47:31.381Z,3.88
2023-01-19T09:50:36.470Z,3.82
2023-01-19T09:53:43.754Z,3.86
2023-01-19T09:56:46.833Z,3.88
2023-01-19T09:59:51.455Z,4.10
2023-01-19T10:02:56.647Z,3.95
2023-01-19T10:06:01.346Z,4.00
2023-01-19T10:09:06.297Z,4.19
2023-01-19T10:12:12.539Z,4.14
2023-01-19T10:15:20.598Z,4.02
2023-01-19T10:18:26.466Z,3.99
2023-01-19T10:21:31.545Z,4.22
2023-01-19T10:24:37.749Z,4.19
2023-01-19T10:27:40.230Z,4.29
2023-01-19T10:30:44.255Z,4.27
2023-01-19T10:33:46.703Z,4.34
2023-01-19T10:36:49.870Z,4.40
2023-01-19T10:39:52.948Z,4.36
2023-01-19T10:42:56.424Z,4.47
2023-01-19T10:46:00.299Z,4.37
2023-01-19T10:49:03.197Z,4.38
2023-01-19T10:52:06.138Z,4.29
2023-01-19T10:55:20.169Z,4.31
2023-01-19T10:58:27.369Z,4.05
2023-01-19T11:01:31.589Z,4.02
2023-01-19T11:04:33.824Z,4.19
2023-01-19T11:07:36.491Z,4.36
2023-01-19T11:10:38.839Z,4.20
2023-01-19T11:13:41.670Z,4.19
2023-01-19T11:16:47.689Z,3.98
2023-01-19T11:19:57.214Z,4.15
2023-01-19T11:23:06.957Z,4.37
2023-01-19T11:26:10.485Z,3.99
2023-01-19T11:29:16.665Z,4.09
2023-01-19T11:32:22.410Z,3.92
2023-01-19T11:35:37.866Z,3.83
2023-01-19T11:38:41.202Z,3.83
2023-01-19T11:41:52.295Z,3.74
2023-01-19T11:45:07.249Z,3.59
2023-01-19T11:48:15.701Z,3.62
2023-01-19T11:51:19.426Z,3.64
2023-01-19T11:54:23.790Z,3.66
2023-01-19T11:57:26.562Z,3.25
2023-01-19T12:00:35.672Z,3.36
2023-01-19T12:03:41.542Z,3.43
2023-01-19T12:06:45.460Z,3.71
2023-01-19T12:09:48.758Z,3.61
2023-01-19T12:12:51.565Z,3.44
2023-01-19T12:15:57.752Z,3.50
2023-01-19T12:19:02.658Z,3.66
2023-01-19T12:22:05.382Z,3.66
2023-01-19T12:25:14.916Z,3.42
2023-01-19T12:28:17.787Z,3.63
2023-01-19T12:31:21.661Z,3.59
2023-01-19T12:34:40.049Z,3.40
2023-01-19T12:37:42.897Z,3.49
2023-01-19T12:40:46.061Z,3.50
2023-01-19T12:43:48.736Z,3.57
2023-01-19T12:46:54.472Z,3.37
2023-01-19T12:50:00.837Z,3.47
2023-01-19T12:53:04.019Z,3.60
2023-01-19T12:56:08.654Z,3.76
2023-01-19T12:59:22.250Z,3.68
2023-01-19T13:02:49.375Z,3.72
2023-01-19T13:05:54.316Z,3.87
2023-01-19T13:08:58.358Z,3.97
2023-01-19T13:12:21.355Z,4.00
2023-01-19T13:15:27.743Z,3.88
2023-01-19T13:18:31.392Z,3.63
2023-01-19T13:21:36.362Z,3.66
2023-01-19T13:25:06.699Z,3.83
2023-01-19T13:28:10.045Z,3.89
2023-01-19T13:31:12.893Z,4.04
2023-01-19T13:34:17.158Z,4.20
2023-01-19T13:37:22.554Z,4.19
2023-01-19T13:40:27.639Z,4.09
2023-01-19T13:43:32.385Z,3.94
2023-01-19T13:46:35.121Z,4.02
2023-01-19T13:49:39.196Z,3.85
2023-01-19T13:52:43.187Z,3.86
2023-01-19T13:55:47.759Z,3.84
2023-01-19T13:59:10.177Z,3.82
2023-01-19T14:02:13.018Z,3.77
2023-01-19T14:05:16.171Z,3.83
2023-01-19T14:08:20.220Z,3.86
2023-01-19T14:11:22.945Z,3.88
2023-01-19T14:14:26.091Z,3.90
2023-01-19T14:17:30.082Z,3.89
2023-01-19T14:20:36.782Z,3.81
2023-01-19T14:23:43.134Z,3.60
2023-01-19T14:26:46.903Z,3.48
2023-01-19T14:29:50.745Z,3.40
2023-01-19T14:32:53.824Z,3.60
2023-01-19T14:35:56.446Z,3.64
2023-01-19T14:39:01.066Z,3.47
2023-01-19T14:42:04.777Z,3.50
2023-01-19T14:45:13.093Z,3.45
2023-01-19T14:48:18.180Z,3.53
2023-01-19T14:51:22.713Z,3.43
2023-01-19T14:54:30.923Z,3.45
2023-01-19T14:57:33.971Z,3.52
2023-01-19T15:00:36.679Z,3.52
2023-01-19T15:03:44.762Z,3.46
2023-01-19T15:06:48.437Z,3.58
2023-01-19T15:09:52.250Z,3.59
2023-01-19T15:12:54.674Z,3.61
2023-01-19T15:15:58.331Z,3.67
2023-01-19T15:19:00.744Z,3.56
2023-01-19T15:22:09.306Z,3.51
2023-01-19T15:25:17.698Z,3.60
2023-01-19T15:28:20.246Z,3.54
2023-01-19T15:31:23.689Z,3.43
2023-01-19T15:34:26.103Z,3.34
2023-01-19T15:37:28.957Z,3.27
2023-01-19T15:40:32.636Z,3.17
2023-01-19T15:43:35.102Z,3.04
2023-01-19T15:46:37.570Z,3.07
2023-01-19T15:49:40.286Z,3.01
2023-01-19T15:52:47.102Z,3.10
2023-01-19T15:55:57.118Z,3.13
2023-01-19T15:58:59.924Z,3.21
2023-01-19T16:02:03.432Z,3.28
2023-01-19T16:05:06.967Z,3.22
2023-01-19T16:08:10.105Z,3.23
2023-01-19T16:11:14.673Z,3.40
2023-01-19T16:14:17.691Z,3.36
